»·PEaware :: N610GH KREO-KBOI

N610GH :: KREO-KBOI

FLIGHT INFORMATION

Flight Status: Arrived
Operator: Privately registered:
United States
More flights under this callsign
Pilot: Anonymous 37249 (37249)
Aircraft: PILATUS PC-12 EAGLE
(PC12)
More flights by this aircraft type
Origin: KREO Rome State
United States
Destination: KBOI Boise Air Terminal/Gowen
United States
More flights between these airports :: More routes between these airports
Route: REO V113 BOI
File this flight plan on PilotEdge
Remarks:
Altitude:
(Current/Filed)
15,000ft
Speed:
(Current/Filed)
280kts
Departed: 11-Jan-22 05:48 PM
Arrived: 11-Jan-22 06:22 PM
Distance/Time
Traveled:
93nm/0:34
Distance/Time
To Go:
Arrived

Flight Plot

Page will automatically refresh every two minutes.

Flight plan parsing failed; only flown route is shown


Map Options




Map Legend


Flown Route
Filed Route
Departure Airport
Arrival Airport
Navaid (VOR, NDB)
Fix

Horizontal Profiles

Position Reports

Time Latitude Longitude Heading Altitude Ground
Speed
11-Jan-22 17:10 42.584241 -117.877523 136 4052ft 0kts
11-Jan-22 17:11 42.584241 -117.877523 136 4052ft 0kts
11-Jan-22 17:12 42.584241 -117.877523 136 4052ft 0kts
11-Jan-22 17:12 42.584241 -117.877523 136 4052ft 0kts
11-Jan-22 17:14 42.584241 -117.877523 136 4052ft 0kts
11-Jan-22 17:15 42.584241 -117.877523 136 4052ft 0kts
11-Jan-22 17:16 42.584241 -117.877523 136 4052ft 0kts
11-Jan-22 17:17 42.584241 -117.877523 136 4052ft 0kts
11-Jan-22 17:17 42.584241 -117.877523 136 4052ft 0kts
11-Jan-22 17:18 42.584241 -117.877523 136 4052ft 0kts
11-Jan-22 17:20 42.584241 -117.877523 136 4052ft 0kts
11-Jan-22 17:21 42.584241 -117.877523 136 4052ft 0kts
11-Jan-22 17:21 42.584241 -117.877523 136 4052ft 0kts
11-Jan-22 17:22 42.584241 -117.877523 136 4052ft 0kts
11-Jan-22 17:23 42.584241 -117.877523 136 4052ft 0kts
11-Jan-22 17:24 42.584241 -117.877523 136 4052ft 0kts
11-Jan-22 17:26 42.584241 -117.877523 136 4052ft 0kts
11-Jan-22 17:26 42.584241 -117.877523 136 4052ft 0kts
11-Jan-22 17:27 42.584241 -117.877523 136 4052ft 0kts
11-Jan-22 17:28 42.584241 -117.877523 136 4052ft 0kts
11-Jan-22 17:29 42.584241 -117.877523 136 4052ft 0kts
11-Jan-22 17:30 42.584241 -117.877523 136 4052ft 0kts
11-Jan-22 17:31 42.584241 -117.877523 137 4052ft 0kts
11-Jan-22 17:32 42.584241 -117.877523 137 4052ft 0kts
11-Jan-22 17:33 42.584241 -117.877523 137 4052ft 0kts
11-Jan-22 17:34 42.584241 -117.877523 137 4052ft 0kts
11-Jan-22 17:35 42.584241 -117.877523 137 4052ft 0kts
11-Jan-22 17:36 42.584241 -117.877523 137 4052ft 0kts
11-Jan-22 17:37 42.584241 -117.877523 137 4052ft 0kts
11-Jan-22 17:38 42.584241 -117.877523 137 4052ft 0kts
11-Jan-22 17:39 42.584225 -117.877503 137 4052ft 2kts
11-Jan-22 17:40 42.583736 -117.877837 217 4052ft 0kts
11-Jan-22 17:41 42.583736 -117.877837 217 4052ft 0kts
11-Jan-22 17:42 42.583736 -117.877837 217 4052ft 0kts
11-Jan-22 17:43 42.583736 -117.877837 217 4052ft 0kts
11-Jan-22 17:44 42.583097 -117.878242 222 4052ft 1kts
11-Jan-22 17:45 42.583094 -117.878246 222 4052ft 0kts
11-Jan-22 17:46 42.583001 -117.878361 220 4052ft 11kts
11-Jan-22 17:47 42.563507 -117.902563 206 4838ft 140kts
11-Jan-22 17:48 42.546482 -117.922126 265 5677ft 146kts
11-Jan-22 17:49 42.555107 -117.938656 334 6055ft 155kts
11-Jan-22 17:50 42.583932 -117.904897 53 7429ft 161kts
11-Jan-22 17:51 42.608657 -117.856058 50 8848ft 150kts
11-Jan-22 17:52 42.613709 -117.848016 49 9121ft 154kts
11-Jan-22 17:53 42.634871 -117.817009 48 9740ft 165kts
11-Jan-22 17:54 42.660154 -117.764048 91 10673ft 178kts
11-Jan-22 17:55 42.661732 -117.698204 39 11189ft 223kts
11-Jan-22 17:56 42.710415 -117.649201 30 12089ft 244kts
11-Jan-22 17:57 42.712676 -117.646715 31 12084ft 246kts
11-Jan-22 17:58 42.758227 -117.580412 38 12393ft 262kts
11-Jan-22 17:59 42.804171 -117.503495 42 12992ft 258kts
11-Jan-22 18:00 42.845721 -117.423070 47 13576ft 265kts
11-Jan-22 18:01 42.889404 -117.340265 47 13826ft 271kts
11-Jan-22 18:02 42.938093 -117.262919 37 14161ft 266kts
11-Jan-22 18:03 42.993360 -117.190486 38 13705ft 282kts
11-Jan-22 18:04 43.050572 -117.118695 38 13107ft 283kts
11-Jan-22 18:05 43.095958 -117.031901 52 12451ft 279kts
11-Jan-22 18:06 43.131892 -116.955293 52 11221ft 289kts
11-Jan-22 18:07 43.158369 -116.901038 51 11155ft 268kts
11-Jan-22 18:08 43.201218 -116.817344 50 10437ft 267kts
11-Jan-22 18:09 43.245457 -116.738324 50 10110ft 250kts
11-Jan-22 18:10 43.287129 -116.664958 50 10111ft 241kts
11-Jan-22 18:11 43.343507 -116.624837 15 9540ft 238kts
11-Jan-22 18:12 43.407399 -116.596258 17 8007ft 241kts
11-Jan-22 18:13 43.469755 -116.568592 17 6407ft 233kts
11-Jan-22 18:14 43.530747 -116.540866 18 5204ft 232kts
11-Jan-22 18:15 43.583033 -116.501626 38 5107ft 207kts
11-Jan-22 18:16 43.619176 -116.459637 50 5105ft 153kts
11-Jan-22 18:17 43.624508 -116.403003 114 4665ft 167kts
11-Jan-22 18:18 43.606012 -116.348472 116 4207ft 140kts
11-Jan-22 18:19 43.590385 -116.302291 115 3823ft 123kts
11-Jan-22 18:20 43.576454 -116.261297 114 3175ft 113kts
11-Jan-22 18:21 43.565847 -116.230435 115 2838ft 32kts
11-Jan-22 18:22 43.563246 -116.225650 225 2844ft 0kts
11-Jan-22 18:23 43.563104 -116.226114 280 2842ft 11kts
11-Jan-22 18:24 43.564852 -116.233940 259 2830ft 19kts
11-Jan-22 18:25 43.563933 -116.236344 175 2824ft 0kts
11-Jan-22 18:26 43.563933 -116.236344 175 2824ft 0kts
11-Jan-22 18:27 43.563933 -116.236344 175 2824ft 0kts
11-Jan-22 18:28 43.563933 -116.236344 175 2824ft 0kts
11-Jan-22 18:29 43.563933 -116.236344 175 2824ft 0kts
11-Jan-22 18:30 43.563933 -116.236344 175 2824ft 0kts
11-Jan-22 18:31 43.563933 -116.236344 175 2824ft 0kts

Navigation Log

Ident Type
Flight plan parsing failed, navigation log unavailable